Time;durP1;ratioP1;P1;durP2;ratioP2;P2;SDS_P1;SDS_P2;PMS_P1;PMS_P2;Temp;Humidity;BMP_temperature;BMP_pressure;BME280_temperature;BME280_humidity;BME280_pressure;Samples;Min_cycle;Max_cycle;Signal;HPM_P1;HPM_P2
2023/07/25 00:01:05;;;;;;;11.73;3.80;;;19.90;99.90;;;;;;5049971;28;20033;-60
2023/07/25 00:03:31;;;;;;;13.63;3.65;;;19.90;99.90;;;;;;5051075;28;20508;-60
2023/07/25 00:05:57;;;;;;;12.45;3.53;;;19.90;99.90;;;;;;5051432;28;20095;-61
2023/07/25 00:08:23;;;;;;;11.10;3.55;;;20.00;99.90;;;;;;5051374;28;20405;-61
2023/07/25 00:10:48;;;;;;;9.88;3.50;;;20.00;99.90;;;;;;5051533;28;20040;-61
2023/07/25 00:13:14;;;;;;;11.10;3.28;;;19.80;99.90;;;;;;5051167;28;20088;-61
2023/07/25 00:15:40;;;;;;;11.65;3.50;;;19.70;99.90;;;;;;5051122;28;20043;-60
2023/07/25 00:18:06;;;;;;;10.55;3.10;;;19.70;99.90;;;;;;5050658;28;20485;-60
2023/07/25 00:20:31;;;;;;;12.18;3.25;;;19.70;99.90;;;;;;5051530;28;20056;-60
2023/07/25 00:22:57;;;;;;;10.70;3.05;;;19.70;99.90;;;;;;5051091;28;20040;-61
2023/07/25 00:25:24;;;;;;;11.00;3.33;;;19.60;99.90;;;;;;5051121;28;20133;-61
2023/07/25 00:27:49;;;;;;;8.18;2.70;;;19.50;99.90;;;;;;5050850;28;20021;-61
2023/07/25 00:30:15;;;;;;;8.88;2.88;;;19.50;99.90;;;;;;5051159;28;20029;-61
2023/07/25 00:32:41;;;;;;;10.50;2.90;;;19.60;99.90;;;;;;5050810;28;20509;-60
2023/07/25 00:35:07;;;;;;;11.15;3.40;;;19.80;99.90;;;;;;5051245;28;20025;-60
2023/07/25 00:37:32;;;;;;;11.38;3.25;;;20.00;99.90;;;;;;5051020;28;20060;-61
2023/07/25 00:39:58;;;;;;;10.68;3.92;;;20.10;99.90;;;;;;5050991;28;20466;-61
2023/07/25 00:42:24;;;;;;;12.85;3.45;;;20.10;99.90;;;;;;5050994;28;20024;-61
2023/07/25 00:44:51;;;;;;;10.00;3.50;;;20.10;99.90;;;;;;5050873;28;20059;-61
2023/07/25 00:47:17;;;;;;;9.57;3.15;;;20.10;99.90;;;;;;5050983;28;20024;-61
2023/07/25 00:49:45;;;;;;;14.25;3.80;;;20.10;99.90;;;;;;5050873;28;20524;-60
2023/07/25 00:52:11;;;;;;;16.02;4.00;;;20.10;99.90;;;;;;5050874;28;20037;-60
2023/07/25 00:54:46;;;;;;;14.45;3.90;;;20.20;99.90;;;;;;5050991;28;20032;-60
2023/07/25 00:57:12;;;;;;;13.73;4.07;;;20.10;99.90;;;;;;5050917;28;20025;-61
2023/07/25 00:59:38;;;;;;;13.60;4.30;;;20.10;99.90;;;;;;5050694;28;20025;-60
2023/07/25 01:02:04;;;;;;;12.27;4.00;;;20.30;99.90;;;;;;5050400;28;20029;-60
2023/07/25 01:04:30;;;;;;;17.15;4.43;;;20.20;99.90;;;;;;5051143;28;20505;-61
2023/07/25 01:06:56;;;;;;;13.77;4.10;;;20.00;99.90;;;;;;5050777;28;20033;-61
2023/07/25 01:09:43;;;;;;;15.23;4.13;;;19.90;99.90;;;;;;5050687;28;20032;-60
2023/07/25 01:12:10;;;;;;;16.38;4.22;;;19.80;99.90;;;;;;5050649;28;20452;-60
2023/07/25 01:14:37;;;;;;;12.13;3.90;;;19.80;99.90;;;;;;5050534;28;20025;-61
2023/07/25 01:17:11;;;;;;;12.73;4.15;;;19.50;99.90;;;;;;5050295;28;20029;-61
2023/07/25 01:19:39;;;;;;;14.77;3.97;;;19.50;99.90;;;;;;5050646;28;20048;-61
2023/07/25 01:22:06;;;;;;;12.88;4.00;;;19.40;99.90;;;;;;5051009;28;20486;-61
2023/07/25 01:24:33;;;;;;;14.95;4.05;;;19.40;99.90;;;;;;5050528;28;20049;-61
2023/07/25 01:26:59;;;;;;;17.60;4.45;;;19.30;99.90;;;;;;5050585;28;20033;-61
2023/07/25 01:29:24;;;;;;;12.30;4.22;;;19.10;99.90;;;;;;5050735;28;20037;-61
2023/07/25 01:31:50;;;;;;;12.70;3.80;;;19.10;99.90;;;;;;5050377;28;20052;-61
2023/07/25 01:34:16;;;;;;;12.32;3.70;;;19.10;99.90;;;;;;5050596;28;20028;-60
2023/07/25 01:36:41;;;;;;;14.52;3.83;;;19.10;99.90;;;;;;5050463;28;20029;-61
2023/07/25 01:39:07;;;;;;;10.60;3.38;;;19.00;99.90;;;;;;5050960;28;20025;-61
2023/07/25 01:41:33;;;;;;;12.80;3.63;;;19.00;99.90;;;;;;5053955;28;20099;-61
2023/07/25 01:43:58;;;;;;;13.35;3.80;;;18.90;99.90;;;;;;5054192;28;20029;-61
2023/07/25 01:46:24;;;;;;;12.65;3.90;;;18.90;99.90;;;;;;5054129;28;20024;-60
2023/07/25 01:48:50;;;;;;;13.95;4.30;;;19.10;99.90;;;;;;5054060;28;20036;-61
2023/07/25 01:51:15;;;;;;;12.13;4.07;;;19.40;99.90;;;;;;5054003;28;20115;-60
2023/07/25 01:53:41;;;;;;;11.75;3.78;;;19.60;99.90;;;;;;5054350;28;20104;-61
2023/07/25 01:56:07;;;;;;;12.13;3.80;;;19.80;99.90;;;;;;5053768;28;20548;-61
2023/07/25 01:58:32;;;;;;;13.85;3.80;;;19.80;99.90;;;;;;5053837;28;20445;-60
2023/07/25 02:00:58;;;;;;;15.15;3.80;;;19.70;99.90;;;;;;5053424;28;20029;-61
2023/07/25 02:03:25;;;;;;;12.77;3.80;;;19.80;99.90;;;;;;5053880;28;20044;-60
2023/07/25 02:05:51;;;;;;;18.15;4.13;;;19.70;99.90;;;;;;5054203;28;20029;-61
2023/07/25 02:08:16;;;;;;;13.95;3.92;;;19.70;99.90;;;;;;5053805;28;20040;-60
2023/07/25 02:10:42;;;;;;;11.15;3.83;;;19.70;99.90;;;;;;5053360;28;20037;-60
2023/07/25 02:13:08;;;;;;;15.43;3.50;;;19.70;99.90;;;;;;5053450;28;20108;-61
2023/07/25 02:15:35;;;;;;;13.30;4.00;;;19.70;99.90;;;;;;5053494;28;20410;-60
2023/07/25 02:18:01;;;;;;;13.88;3.40;;;19.50;99.90;;;;;;5053339;28;20025;-61
2023/07/25 02:20:31;;;;;;;9.85;3.10;;;19.50;99.90;;;;;;5053404;28;20025;-60
2023/07/25 02:22:57;;;;;;;13.02;3.38;;;19.30;99.90;;;;;;5053252;28;20017;-61
2023/07/25 02:25:23;;;;;;;14.52;4.25;;;19.30;99.90;;;;;;5053558;28;20135;-61
2023/07/25 02:27:49;;;;;;;13.23;4.03;;;19.30;99.90;;;;;;5053161;28;20021;-61
2023/07/25 02:30:15;;;;;;;11.35;3.63;;;19.20;99.90;;;;;;5053147;28;20051;-61
2023/07/25 02:32:40;;;;;;;13.70;3.42;;;19.10;99.90;;;;;;5053569;28;20039;-61
2023/07/25 02:35:06;;;;;;;11.18;3.10;;;19.00;99.90;;;;;;5053369;28;20040;-60
2023/07/25 02:37:32;;;;;;;15.45;3.75;;;18.90;99.90;;;;;;5053064;28;20071;-60
2023/07/25 02:39:57;;;;;;;11.65;3.28;;;18.90;99.90;;;;;;5052846;28;20017;-61
2023/07/25 02:42:23;;;;;;;12.25;3.85;;;19.00;99.90;;;;;;5052664;28;20029;-60
2023/07/25 02:44:48;;;;;;;11.95;3.60;;;18.90;99.90;;;;;;5052937;28;20021;-61
2023/07/25 02:47:14;;;;;;;9.98;3.15;;;18.90;99.90;;;;;;5053254;28;20545;-60
2023/07/25 02:49:40;;;;;;;9.15;3.10;;;18.80;99.90;;;;;;5052530;28;20025;-61
2023/07/25 02:52:06;;;;;;;9.82;3.33;;;18.60;99.90;;;;;;5052852;28;20036;-61
2023/07/25 02:54:32;;;;;;;10.90;3.20;;;18.70;99.90;;;;;;5052803;28;20029;-60
2023/07/25 02:56:57;;;;;;;8.73;2.90;;;18.60;99.90;;;;;;5052343;28;20905;-60
2023/07/25 02:59:23;;;;;;;11.25;3.40;;;18.50;99.90;;;;;;5052535;28;20029;-61
2023/07/25 03:01:49;;;;;;;11.93;3.55;;;18.50;99.90;;;;;;5052536;28;20025;-60
2023/07/25 03:04:14;;;;;;;10.63;2.80;;;18.70;99.90;;;;;;5052804;28;20474;-61
2023/07/25 03:06:40;;;;;;;9.75;3.13;;;19.00;99.90;;;;;;5052543;28;20075;-61
2023/07/25 03:09:05;;;;;;;13.10;3.58;;;19.10;99.90;;;;;;5052428;28;20526;-60
2023/07/25 03:11:31;;;;;;;11.50;3.35;;;19.20;99.90;;;;;;5052034;28;20171;-60
2023/07/25 03:13:57;;;;;;;7.15;2.80;;;19.20;99.90;;;;;;5052253;28;20532;-61
2023/07/25 03:16:22;;;;;;;13.10;3.53;;;19.40;99.90;;;;;;5052678;28;20546;-60
2023/07/25 03:18:48;;;;;;;10.60;3.13;;;19.30;99.90;;;;;;5052131;28;20032;-60
2023/07/25 03:21:14;;;;;;;15.35;3.47;;;19.30;99.90;;;;;;5052229;28;20020;-61
2023/07/25 03:23:39;;;;;;;13.35;3.80;;;19.40;99.90;;;;;;5052102;28;20143;-60
2023/07/25 03:26:05;;;;;;;10.88;3.58;;;19.50;99.90;;;;;;5051803;28;20033;-60
2023/07/25 03:28:31;;;;;;;12.23;3.45;;;19.40;99.90;;;;;;5052306;28;20100;-61
2023/07/25 03:30:56;;;;;;;14.48;4.07;;;19.50;99.90;;;;;;5051868;28;20417;-61
2023/07/25 03:33:22;;;;;;;11.80;3.80;;;19.60;99.90;;;;;;5052372;28;20028;-60
2023/07/25 03:35:47;;;;;;;10.55;3.47;;;19.50;99.90;;;;;;5051985;28;20043;-60
2023/07/25 03:38:13;;;;;;;14.50;3.80;;;19.30;99.90;;;;;;5051744;28;20020;-60
2023/07/25 03:40:39;;;;;;;14.63;3.40;;;19.20;99.90;;;;;;5051453;28;20383;-60
2023/07/25 03:43:04;;;;;;;10.63;3.38;;;19.30;99.90;;;;;;5051849;28;20100;-60
2023/07/25 03:45:30;;;;;;;9.85;3.28;;;19.30;99.90;;;;;;5051811;28;20033;-61
2023/07/25 03:47:56;;;;;;;13.32;3.75;;;19.10;99.90;;;;;;5052162;28;20033;-60
2023/07/25 03:50:21;;;;;;;11.60;3.13;;;19.10;99.90;;;;;;5051615;28;20478;-61
2023/07/25 03:52:47;;;;;;;9.30;3.25;;;19.10;99.90;;;;;;5051637;28;20482;-60
2023/07/25 03:55:12;;;;;;;7.60;2.55;;;19.10;99.90;;;;;;5051301;28;20382;-60
2023/07/25 03:57:38;;;;;;;9.85;3.00;;;19.10;99.90;;;;;;5051942;28;20037;-60
2023/07/25 04:00:04;;;;;;;11.75;2.65;;;19.00;99.90;;;;;;5051486;28;20025;-61
2023/07/25 04:02:30;;;;;;;9.25;2.83;;;19.00;99.90;;;;;;5050952;28;20021;-60
2023/07/25 04:04:56;;;;;;;8.57;2.53;;;18.90;99.90;;;;;;5050120;28;20029;-61
2023/07/25 04:07:21;;;;;;;10.40;3.00;;;18.80;99.90;;;;;;5051739;28;20612;-60
2023/07/25 04:09:47;;;;;;;8.85;3.08;;;18.70;99.90;;;;;;5051047;28;20039;-60
2023/07/25 04:12:13;;;;;;;11.63;3.47;;;18.70;99.90;;;;;;5051292;28;20532;-60
2023/07/25 04:14:40;;;;;;;8.70;2.60;;;18.80;99.90;;;;;;5051118;28;20121;-60
2023/07/25 04:17:06;;;;;;;9.52;2.75;;;18.80;99.90;;;;;;5051664;28;20025;-60
2023/07/25 04:19:32;;;;;;;12.77;3.10;;;18.70;99.90;;;;;;5051228;28;20444;-60
2023/07/25 04:21:58;;;;;;;7.72;2.38;;;18.90;99.90;;;;;;5051279;28;20112;-60
2023/07/25 04:24:23;;;;;;;7.60;2.95;;;19.10;99.90;;;;;;5050880;28;20079;-60
2023/07/25 04:26:49;;;;;;;8.35;2.90;;;19.20;99.90;;;;;;5051135;28;20033;-60
2023/07/25 04:29:14;;;;;;;8.50;2.85;;;19.30;99.90;;;;;;5051500;28;20025;-60
2023/07/25 04:31:40;;;;;;;9.63;2.53;;;19.40;99.90;;;;;;5049747;28;20037;-60
2023/07/25 04:34:06;;;;;;;11.23;3.40;;;19.60;99.90;;;;;;5051090;28;20025;-61
2023/07/25 04:36:31;;;;;;;11.38;2.97;;;19.60;99.90;;;;;;5050968;28;20036;-61
2023/07/25 04:38:57;;;;;;;12.00;2.88;;;19.50;99.90;;;;;;5051101;28;20078;-61
2023/07/25 04:41:23;;;;;;;7.55;2.50;;;19.60;99.90;;;;;;5051050;28;20474;-61
2023/07/25 04:43:49;;;;;;;8.55;2.65;;;19.50;99.90;;;;;;5051110;28;20029;-60
2023/07/25 04:46:14;;;;;;;9.95;2.95;;;19.50;99.90;;;;;;5051000;28;20543;-61
2023/07/25 04:48:40;;;;;;;8.80;2.67;;;19.60;99.90;;;;;;5050992;28;20032;-60
2023/07/25 04:51:06;;;;;;;8.82;2.60;;;19.60;99.90;;;;;;5051126;28;20045;-61
2023/07/25 04:53:34;;;;;;;8.27;2.58;;;19.30;99.90;;;;;;5050540;28;20028;-61
2023/07/25 04:55:59;;;;;;;9.02;2.78;;;19.20;99.90;;;;;;5051200;28;20032;-60
2023/07/25 04:58:25;;;;;;;7.32;2.45;;;19.20;99.90;;;;;;5050636;28;20017;-60
2023/07/25 05:00:51;;;;;;;7.25;2.80;;;19.00;99.90;;;;;;5051199;28;20040;-61
2023/07/25 05:03:16;;;;;;;12.68;2.70;;;19.00;99.90;;;;;;5050872;28;20104;-60
2023/07/25 05:05:42;;;;;;;6.65;2.47;;;18.90;99.90;;;;;;5049589;28;20033;-60
2023/07/25 05:08:08;;;;;;;8.73;2.80;;;18.80;99.90;;;;;;5050725;28;20112;-60
2023/07/25 05:10:35;;;;;;;10.75;2.88;;;18.90;99.90;;;;;;5050755;28;20037;-60
2023/07/25 05:13:01;;;;;;;8.27;2.50;;;18.80;99.90;;;;;;5050502;28;20025;-61
2023/07/25 05:15:27;;;;;;;9.63;2.72;;;18.90;99.90;;;;;;5053331;28;20552;-60
2023/07/25 05:17:52;;;;;;;7.43;2.40;;;18.80;99.90;;;;;;5054551;28;20021;-60
2023/07/25 05:20:18;;;;;;;10.07;2.70;;;18.80;99.90;;;;;;5054763;28;20512;-60
2023/07/25 05:22:44;;;;;;;10.38;3.05;;;18.80;99.90;;;;;;5054193;28;20036;-60
2023/07/25 05:25:09;;;;;;;8.43;2.70;;;18.70;99.90;;;;;;5054335;28;20048;-60
2023/07/25 05:27:35;;;;;;;11.00;2.97;;;18.70;99.90;;;;;;5054582;28;20036;-61
2023/07/25 05:30:02;;;;;;;9.85;3.08;;;18.70;99.90;;;;;;5054275;28;20064;-61
2023/07/25 05:32:28;;;;;;;8.43;2.22;;;18.70;99.90;;;;;;5054360;28;20505;-61
2023/07/25 05:34:53;;;;;;;8.65;2.67;;;18.60;99.90;;;;;;5054483;28;20021;-60
2023/07/25 05:37:20;;;;;;;9.13;2.78;;;18.80;99.90;;;;;;5054074;28;20044;-60
2023/07/25 05:39:46;;;;;;;8.88;2.90;;;19.10;99.90;;;;;;5054163;28;20017;-60
2023/07/25 05:42:11;;;;;;;8.15;2.58;;;19.20;99.90;;;;;;5054225;28;20055;-61
2023/07/25 05:44:37;;;;;;;10.43;3.25;;;19.30;99.90;;;;;;5054109;28;20025;-61
2023/07/25 05:47:05;;;;;;;11.55;3.15;;;19.50;99.90;;;;;;5054076;28;20146;-60
2023/07/25 05:49:31;;;;;;;12.45;3.15;;;19.70;99.90;;;;;;5054273;28;20102;-60
2023/07/25 05:51:56;;;;;;;10.38;2.80;;;19.70;99.90;;;;;;5053610;28;20052;-60
2023/07/25 05:54:22;;;;;;;8.52;2.70;;;19.70;99.90;;;;;;5053845;28;20411;-60
2023/07/25 05:56:48;;;;;;;10.02;2.97;;;19.80;99.90;;;;;;5053792;28;20047;-59
2023/07/25 05:59:14;;;;;;;9.82;2.60;;;19.80;99.90;;;;;;5053862;28;20056;-59
2023/07/25 06:01:39;;;;;;;8.60;2.90;;;19.90;99.90;;;;;;5054118;28;20470;-60
2023/07/25 06:04:06;;;;;;;8.25;2.80;;;19.70;99.90;;;;;;5053588;28;20075;-59
2023/07/25 06:06:32;;;;;;;10.88;3.00;;;19.60;99.90;;;;;;5053438;28;20035;-59
2023/07/25 06:08:57;;;;;;;9.65;2.80;;;19.40;99.90;;;;;;5053674;28;20029;-60
2023/07/25 06:11:24;;;;;;;10.38;2.70;;;19.40;99.90;;;;;;5053456;28;20047;-59
2023/07/25 06:13:52;;;;;;;10.43;3.05;;;19.30;99.90;;;;;;5053771;28;20116;-59
2023/07/25 06:16:18;;;;;;;9.02;2.88;;;19.30;99.90;;;;;;5053671;28;20028;-60
2023/07/25 06:18:44;;;;;;;10.90;2.78;;;19.30;99.90;;;;;;5052125;28;20115;-60
2023/07/25 06:21:10;;;;;;;9.05;2.83;;;19.30;99.90;;;;;;5053234;28;20052;-61
2023/07/25 06:23:36;;;;;;;8.23;2.75;;;19.30;99.90;;;;;;5053233;28;20051;-60
2023/07/25 06:26:01;;;;;;;8.15;2.45;;;19.40;99.90;;;;;;5053399;28;20033;-61
2023/07/25 06:28:27;;;;;;;8.13;2.58;;;19.20;99.90;;;;;;5052246;28;20021;-60
2023/07/25 06:30:53;;;;;;;11.60;2.72;;;19.30;99.90;;;;;;5053114;28;20048;-61
2023/07/25 06:33:19;;;;;;;8.23;2.60;;;19.30;99.90;;;;;;5053185;28;20018;-61
2023/07/25 06:35:45;;;;;;;9.23;2.88;;;19.20;99.90;;;;;;5053182;28;20036;-60
2023/07/25 06:38:10;;;;;;;9.07;3.20;;;19.30;99.90;;;;;;5053110;28;20029;-61
2023/07/25 06:40:36;;;;;;;8.55;2.63;;;19.20;99.90;;;;;;5053185;28;20029;-61
2023/07/25 06:43:02;;;;;;;9.60;2.70;;;19.30;99.90;;;;;;5052717;28;20021;-61
2023/07/25 06:45:27;;;;;;;8.98;2.67;;;19.20;99.90;;;;;;5053309;28;20669;-60
2023/07/25 06:47:53;;;;;;;7.55;2.63;;;19.20;99.90;;;;;;5052909;28;20026;-60
2023/07/25 06:50:19;;;;;;;9.55;3.35;;;19.20;99.90;;;;;;5052439;28;20445;-60
2023/07/25 06:52:44;;;;;;;10.88;3.53;;;19.40;99.90;;;;;;5052821;28;20124;-61
2023/07/25 06:55:10;;;;;;;9.98;2.88;;;19.70;99.90;;;;;;5053355;28;20029;-60
2023/07/25 06:57:36;;;;;;;7.20;2.67;;;19.90;99.90;;;;;;5052990;28;20017;-60
2023/07/25 07:00:03;;;;;;;10.35;2.88;;;20.00;99.90;;;;;;5052697;28;20032;-61
2023/07/25 07:02:28;;;;;;;9.40;2.28;;;20.10;99.90;;;;;;5052689;28;20041;-61
2023/07/25 07:04:56;;;;;;;7.70;2.42;;;20.20;99.90;;;;;;5052366;28;20031;-60
2023/07/25 07:07:21;;;;;;;10.55;2.70;;;20.20;99.90;;;;;;5052438;28;20041;-60
2023/07/25 07:09:47;;;;;;;10.52;2.83;;;20.20;99.90;;;;;;5053000;28;20032;-60
2023/07/25 07:12:14;;;;;;;10.90;2.70;;;20.30;99.90;;;;;;5052512;28;20035;-60
2023/07/25 07:14:40;;;;;;;9.68;2.70;;;20.40;99.90;;;;;;5052218;28;20486;-60
2023/07/25 07:17:05;;;;;;;11.88;2.95;;;20.40;99.90;;;;;;5052258;28;20497;-60
2023/07/25 07:19:31;;;;;;;11.63;2.63;;;20.40;99.90;;;;;;5051796;28;20029;-60
2023/07/25 07:21:57;;;;;;;10.25;2.60;;;20.30;99.90;;;;;;5052325;28;20028;-61
2023/07/25 07:24:22;;;;;;;6.75;2.05;;;20.10;99.90;;;;;;5050888;28;20410;-60
2023/07/25 07:26:48;;;;;;;7.10;2.13;;;20.10;99.90;;;;;;5052547;28;20090;-60
2023/07/25 07:29:14;;;;;;;6.63;2.00;;;19.90;99.90;;;;;;5052182;28;20033;-60
2023/07/25 07:31:39;;;;;;;5.68;2.00;;;19.80;99.90;;;;;;5052133;28;20021;-60
2023/07/25 07:34:13;;;;;;;7.18;1.92;;;19.80;99.90;;;;;;5051582;28;20052;-61
2023/07/25 07:36:38;;;;;;;10.38;2.65;;;19.70;99.90;;;;;;5051329;28;20044;-60
2023/07/25 07:39:04;;;;;;;8.27;2.30;;;19.70;99.90;;;;;;5051824;28;20037;-60
2023/07/25 07:41:30;;;;;;;8.73;2.60;;;19.60;99.90;;;;;;5052033;28;20025;-60
2023/07/25 07:43:55;;;;;;;8.20;2.20;;;19.60;99.90;;;;;;5051908;28;20033;-60
2023/07/25 07:46:21;;;;;;;10.38;2.20;;;19.60;99.90;;;;;;5051772;28;20025;-60
2023/07/25 07:48:47;;;;;;;12.98;2.92;;;19.50;99.90;;;;;;5051435;28;20033;-61
2023/07/25 07:51:12;;;;;;;9.02;2.83;;;19.50;99.90;;;;;;5052008;28;20056;-60
2023/07/25 07:53:38;;;;;;;6.43;1.85;;;19.50;99.90;;;;;;5051852;28;20389;-60
2023/07/25 07:56:07;;;;;;;8.32;2.40;;;19.50;99.90;;;;;;5051915;28;20488;-61
2023/07/25 07:58:33;;;;;;;6.63;2.20;;;19.60;99.90;;;;;;5051518;28;20028;-60
2023/07/25 08:00:59;;;;;;;5.25;1.95;;;19.60;99.90;;;;;;5051494;28;20036;-61
2023/07/25 08:03:24;;;;;;;7.15;2.17;;;19.60;99.90;;;;;;5051143;28;20077;-60
2023/07/25 08:05:57;;;;;;;7.20;2.10;;;19.70;99.90;;;;;;5051885;28;20032;-59
2023/07/25 08:08:23;;;;;;;7.18;2.30;;;19.90;99.90;;;;;;5051335;28;20024;-60
2023/07/25 08:10:48;;;;;;;6.97;2.30;;;20.00;99.90;;;;;;5051782;28;20437;-60
2023/07/25 08:13:14;;;;;;;10.25;2.35;;;20.10;99.90;;;;;;5051548;28;20037;-60
2023/07/25 08:15:40;;;;;;;7.70;2.38;;;20.10;99.90;;;;;;5051282;28;20021;-60
2023/07/25 08:18:07;;;;;;;6.72;2.03;;;20.30;99.90;;;;;;5051073;28;20386;-60
2023/07/25 08:20:32;;;;;;;6.68;2.20;;;20.40;99.90;;;;;;5051241;28;20029;-60
2023/07/25 08:22:58;;;;;;;7.55;2.10;;;20.40;99.90;;;;;;5051586;28;20036;-60
2023/07/25 08:25:24;;;;;;;9.13;2.72;;;20.40;99.90;;;;;;5051188;28;20084;-59
2023/07/25 08:27:49;;;;;;;6.93;2.20;;;20.30;99.90;;;;;;5051229;28;20028;-60
2023/07/25 08:30:15;;;;;;;9.70;2.33;;;20.40;99.90;;;;;;5050674;28;20490;-60
2023/07/25 08:32:41;;;;;;;7.15;2.47;;;20.40;99.90;;;;;;5051135;28;20722;-60
2023/07/25 08:35:07;;;;;;;8.23;2.50;;;20.50;99.90;;;;;;5051055;28;20420;-60
2023/07/25 08:37:32;;;;;;;5.72;1.98;;;20.50;99.90;;;;;;5051478;28;20031;-60
2023/07/25 08:39:59;;;;;;;7.40;2.40;;;20.30;99.90;;;;;;5051019;28;20021;-61
2023/07/25 08:42:26;;;;;;;6.22;2.20;;;20.10;99.90;;;;;;5050911;28;20043;-60
2023/07/25 08:44:53;;;;;;;8.65;2.45;;;20.00;99.90;;;;;;5050653;28;20059;-61
2023/07/25 08:47:26;;;;;;;8.40;2.28;;;20.10;99.90;;;;;;5051513;28;20458;-60
2023/07/25 08:49:55;;;;;;;8.33;2.10;;;20.00;99.90;;;;;;5054241;28;20083;-60
2023/07/25 08:52:26;;;;;;;7.43;2.50;;;20.00;99.90;;;;;;5055163;28;20794;-60
2023/07/25 08:54:52;;;;;;;8.20;2.40;;;20.10;99.90;;;;;;5054970;28;20117;-61
2023/07/25 08:57:21;;;;;;;8.57;2.47;;;20.10;99.90;;;;;;5055265;28;20406;-60
2023/07/25 08:59:48;;;;;;;6.85;2.45;;;20.10;99.90;;;;;;5054485;28;20107;-61
2023/07/25 09:02:16;;;;;;;6.57;2.20;;;20.10;99.90;;;;;;5054951;28;20032;-60
2023/07/25 09:04:45;;;;;;;7.90;2.50;;;20.10;99.90;;;;;;5055235;28;20030;-61
2023/07/25 09:07:11;;;;;;;6.80;2.28;;;20.00;99.90;;;;;;5054861;28;20252;-60
2023/07/25 09:09:37;;;;;;;7.60;2.20;;;19.90;99.90;;;;;;5054766;28;20032;-61
2023/07/25 09:12:03;;;;;;;6.97;2.30;;;19.80;99.90;;;;;;5054514;28;20117;-61
2023/07/25 09:14:29;;;;;;;9.02;2.70;;;19.70;99.90;;;;;;5054576;28;20025;-61
2023/07/25 09:16:54;;;;;;;8.50;2.53;;;19.70;99.90;;;;;;5054582;28;20037;-60
2023/07/25 09:19:20;;;;;;;7.45;2.17;;;19.80;99.90;;;;;;5054416;28;20013;-61
2023/07/25 09:21:53;;;;;;;6.57;2.15;;;19.90;99.90;;;;;;5054654;28;20066;-60
2023/07/25 09:24:18;;;;;;;8.13;2.80;;;20.20;99.90;;;;;;5054619;28;20528;-60
2023/07/25 09:26:49;;;;;;;7.78;2.67;;;20.40;99.90;;;;;;5054374;28;20057;-60
2023/07/25 09:29:15;;;;;;;6.72;2.15;;;20.50;99.90;;;;;;5053964;28;20028;-60
2023/07/25 09:31:45;;;;;;;6.05;2.10;;;20.60;99.90;;;;;;5054659;28;20032;-60
2023/07/25 09:34:18;;;;;;;6.10;2.45;;;20.80;99.90;;;;;;5053886;28;20021;-60
2023/07/25 09:36:46;;;;;;;6.07;2.20;;;20.70;99.90;;;;;;5054305;28;20036;-60
2023/07/25 09:39:12;;;;;;;8.20;2.28;;;20.60;99.90;;;;;;5054279;28;20037;-60
2023/07/25 09:41:38;;;;;;;4.07;1.98;;;20.90;99.90;;;;;;5053998;28;20110;-60
2023/07/25 09:44:05;;;;;;;4.80;1.95;;;21.10;99.90;;;;;;5054235;28;20032;-60
2023/07/25 09:46:31;;;;;;;7.38;2.30;;;21.00;99.90;;;;;;5054256;28;20474;-60
2023/07/25 09:48:57;;;;;;;7.35;2.53;;;21.00;99.90;;;;;;5054046;28;20418;-60
2023/07/25 09:51:23;;;;;;;9.68;2.55;;;21.00;99.90;;;;;;5053861;28;20063;-60
2023/07/25 09:53:53;;;;;;;7.25;2.30;;;21.00;99.90;;;;;;5054007;28;20079;-61
2023/07/25 09:56:26;;;;;;;6.80;2.40;;;21.00;99.90;;;;;;5053832;28;20040;-61
2023/07/25 09:58:53;;;;;;;10.23;2.45;;;20.80;99.90;;;;;;5053497;28;20074;-60
2023/07/25 10:01:19;;;;;;;8.25;2.67;;;20.80;99.90;;;;;;5052816;28;20040;-61
2023/07/25 10:03:45;;;;;;;7.72;2.22;;;20.80;99.90;;;;;;5053796;28;20021;-60
2023/07/25 10:06:14;;;;;;;6.43;2.38;;;20.90;99.90;;;;;;5053664;28;20029;-60
2023/07/25 10:08:42;;;;;;;7.20;2.30;;;20.70;99.90;;;;;;5053721;28;20025;-60
2023/07/25 10:11:08;;;;;;;6.47;2.15;;;20.60;99.90;;;;;;5053859;28;20452;-60
2023/07/25 10:13:33;;;;;;;7.22;2.05;;;20.60;99.90;;;;;;5053119;28;20029;-60
2023/07/25 10:16:02;;;;;;;6.95;2.53;;;20.50;99.90;;;;;;5053563;28;20060;-60
2023/07/25 10:18:32;;;;;;;6.22;2.03;;;20.50;99.90;;;;;;5053787;28;20032;-60
2023/07/25 10:20:57;;;;;;;6.22;2.15;;;20.50;99.90;;;;;;5053501;28;20537;-60
2023/07/25 10:23:31;;;;;;;5.72;1.75;;;20.50;99.90;;;;;;5053137;28;20100;-61
2023/07/25 10:26:08;;;;;;;5.75;1.90;;;20.60;99.90;;;;;;5053664;28;20045;-60
2023/07/25 10:28:33;;;;;;;6.38;2.15;;;20.70;99.90;;;;;;5053021;28;20025;-60
2023/07/25 10:30:59;;;;;;;4.38;2.05;;;20.70;99.90;;;;;;5053502;28;20504;-60
2023/07/25 10:33:25;;;;;;;5.68;2.00;;;20.70;99.90;;;;;;5053268;28;20379;-60
2023/07/25 10:35:52;;;;;;;5.15;1.77;;;20.70;99.90;;;;;;5053271;28;20065;-60
2023/07/25 10:38:42;;;;;;;5.93;2.10;;;20.70;99.90;;;;;;5053019;28;20056;-61
2023/07/25 10:41:08;;;;;;;4.68;1.70;;;20.90;99.90;;;;;;5053007;28;20059;-60
2023/07/25 10:43:46;;;;;;;7.13;2.20;;;21.00;99.90;;;;;;5053081;28;20112;-60
2023/07/25 10:46:14;;;;;;;4.60;2.13;;;21.30;99.90;;;;;;5052952;28;20413;-60
2023/07/25 10:48:48;;;;;;;7.95;2.05;;;21.50;99.90;;;;;;5052952;28;20028;-60
2023/07/25 10:51:17;;;;;;;6.80;2.20;;;21.60;99.90;;;;;;5052747;28;20520;-60
2023/07/25 10:54:16;;;;;;;5.38;2.00;;;21.60;99.90;;;;;;5052839;28;20018;-60
2023/07/25 10:57:17;;;;;;;4.85;2.00;;;21.70;99.90;;;;;;5050552;28;20045;-60
2023/07/25 11:00:04;;;;;;;5.07;1.80;;;21.70;99.90;;;;;;5053163;28;20079;-60
2023/07/25 11:02:39;;;;;;;7.68;2.10;;;21.80;99.90;;;;;;5052826;28;20103;-60
2023/07/25 11:05:13;;;;;;;9.55;2.08;;;21.90;99.90;;;;;;5052625;28;20445;-60
2023/07/25 11:07:45;;;;;;;7.03;2.30;;;21.80;99.90;;;;;;5052454;28;20029;-61
2023/07/25 11:10:11;;;;;;;5.38;1.98;;;21.80;99.90;;;;;;5052092;28;20444;-60
2023/07/25 11:12:37;;;;;;;6.95;2.10;;;21.80;99.90;;;;;;5052727;28;20048;-60
2023/07/25 11:15:03;;;;;;;4.43;1.83;;;21.70;99.90;;;;;;5052110;28;20478;-60
2023/07/25 11:17:30;;;;;;;7.68;1.90;;;21.60;99.90;;;;;;5052467;28;20029;-60
2023/07/25 11:20:17;;;;;;;5.18;2.00;;;21.60;99.90;;;;;;5052137;28;20048;-60
2023/07/25 11:22:43;;;;;;;5.47;1.83;;;21.70;99.90;;;;;;5052125;28;20033;-60
2023/07/25 11:25:09;;;;;;;5.60;1.83;;;21.80;99.90;;;;;;5051858;28;20098;-60
2023/07/25 11:27:46;;;;;;;5.55;2.00;;;21.70;99.90;;;;;;5052780;28;20025;-60
2023/07/25 11:30:20;;;;;;;6.90;2.20;;;21.50;99.90;;;;;;5052091;28;20031;-61
2023/07/25 11:32:53;;;;;;;5.78;1.77;;;21.60;99.90;;;;;;5052037;28;20040;-60
2023/07/25 11:35:21;;;;;;;5.85;2.08;;;21.70;99.90;;;;;;5052445;28;20032;-61
2023/07/25 11:37:49;;;;;;;6.07;1.88;;;21.70;99.90;;;;;;5052078;28;20029;-61
2023/07/25 11:40:15;;;;;;;5.53;1.83;;;21.80;99.90;;;;;;5051677;28;20044;-60
2023/07/25 11:42:43;;;;;;;5.20;1.85;;;21.90;99.90;;;;;;5051928;28;20045;-61
2023/07/25 11:45:13;;;;;;;5.95;2.00;;;22.00;99.90;;;;;;5051887;28;20025;-60
2023/07/25 11:47:41;;;;;;;5.82;2.08;;;21.90;99.90;;;;;;5051949;28;20024;-61
2023/07/25 11:50:09;;;;;;;5.05;1.80;;;21.80;99.90;;;;;;5051585;28;20474;-61
2023/07/25 11:52:39;;;;;;;6.32;2.08;;;21.90;99.90;;;;;;5051700;28;20021;-61
2023/07/25 11:55:07;;;;;;;8.18;2.33;;;21.90;99.90;;;;;;5051457;28;20021;-60
2023/07/25 11:57:35;;;;;;;5.78;2.00;;;22.00;99.90;;;;;;5051558;28;20025;-59
2023/07/25 12:00:02;;;;;;;5.68;2.15;;;22.30;99.90;;;;;;5051577;28;20123;-60
2023/07/25 12:02:38;;;;;;;6.32;1.80;;;22.60;99.90;;;;;;5051740;28;20112;-60
2023/07/25 12:05:04;;;;;;;5.55;1.80;;;22.70;99.90;;;;;;5051456;28;20049;-60
2023/07/25 12:07:49;;;;;;;7.07;2.17;;;23.00;99.90;;;;;;5051769;28;20029;-60
2023/07/25 12:10:27;;;;;;;5.70;2.03;;;22.90;99.90;;;;;;5050921;28;20430;-60
2023/07/25 12:12:55;;;;;;;6.32;1.90;;;22.90;99.90;;;;;;5051609;28;20541;-60
2023/07/25 12:15:21;;;;;;;5.10;1.77;;;23.00;99.90;;;;;;5051434;28;20104;-60
2023/07/25 12:17:47;;;;;;;7.15;2.03;;;23.00;99.90;;;;;;5051248;28;20028;-60
2023/07/25 12:20:14;;;;;;;4.15;1.85;;;23.00;99.90;;;;;;5051515;28;20024;-60
2023/07/25 12:22:39;;;;;;;6.60;2.20;;;23.10;99.90;;;;;;5050623;28;20025;-60
2023/07/25 12:25:06;;;;;;;4.97;1.70;;;23.30;99.90;;;;;;5050995;28;20082;-60
2023/07/25 12:27:33;;;;;;;4.40;1.58;;;23.40;99.90;;;;;;5051153;28;20029;-60
2023/07/25 12:29:59;;;;;;;5.03;1.83;;;23.50;99.90;;;;;;5051377;28;20017;-60
2023/07/25 12:32:25;;;;;;;4.28;1.60;;;23.30;99.90;;;;;;5051102;28;20497;-60
2023/07/25 12:34:50;;;;;;;5.82;1.85;;;23.10;99.90;;;;;;5051108;28;20394;-61
2023/07/25 12:37:16;;;;;;;3.85;1.63;;;22.80;99.90;;;;;;5050699;28;20044;-60
2023/07/25 12:39:41;;;;;;;3.83;1.63;;;22.70;99.90;;;;;;5051214;28;20588;-61
2023/07/25 12:42:07;;;;;;;4.70;1.60;;;22.70;99.90;;;;;;5049835;28;20104;-60